PWSweather.com
Personal Weather Stations
Station Observations
BSWETTER1
Bswetter.de, BraunschweigDE 38106

Bswetter.deBraunschweigDE 38106

Lat: 52.2751483, Lon: 10.5434341

Elevation: 295

Station Type: Davis Vantage II Pro Plus Aktiv

http://bswetter.de/

High Low Average
Temperature 59.3°F15.2°F 48.7°F9.3°F 54.3°F12.4°F
Dew Point 49.1°F9.5°F 39.3°F4.1°F 43.6°F6.4°F
Winds 17.3 mph SW27.8 mph SW Calm Calm 6.8 mph 10.9 mph
Wind Gusts 33.4 mph53.8 mph -- 12.1 mph19.5 mph
Humidity 81% 59% 67%
Pressure 29.80 in1009.10 in 29.58 in1001.70 in -
Precipitation 0.00 in0.00 in - -
Hour Temp Dew Point Humidity Winds Wind Gusts Pressure Precip Precip Rate Daily Precip Total
12:00 AM 48.8°F9.3°C 40.2°F4.6°C 72% 1.2 mph S1.9 kmh S 3.5 mph5.6 kmh 29.68 in1005.1 mb - 0.00 in0.0 mm 0.00 in0.0 mm
12:10 AM 48.7°F9.3°C 39.7°F4.3°C 71% 4.6 mph S7.4 kmh S 8.1 mph13.0 kmh 29.68 in1005.1 mb - 0.00 in0.0 mm 0.00 in0.0 mm
12:15 AM 48.9°F9.4°C 39.9°F4.4°C 71% 5.8 mph S9.3 kmh S 9.2 mph14.8 kmh 29.67 in1004.7 mb - 0.00 in0.0 mm 0.00 in0.0 mm
12:20 AM 49.5°F9.7°C 39.8°F4.3°C 69% 9.2 mph S14.8 kmh S 12.7 mph20.4 kmh 29.67 in1004.7 mb - 0.00 in0.0 mm 0.00 in0.0 mm
12:25 AM 50.5°F10.3°C 39.9°F4.4°C 67% 6.9 mph S11.1 kmh S 13.8 mph22.2 kmh 29.67 in1004.7 mb - 0.00 in0.0 mm 0.00 in0.0 mm
12:30 AM 50.9°F10.5°C 39.9°F4.4°C 66% 6.9 mph S11.1 kmh S 11.5 mph18.5 kmh 29.67 in1004.7 mb - 0.00 in0.0 mm 0.00 in0.0 mm
12:35 AM 51.0°F10.6°C 39.6°F4.2°C 65% 5.8 mph S9.3 kmh S 6.9 mph11.1 kmh 29.67 in1004.7 mb - 0.00 in0.0 mm 0.00 in0.0 mm
12:40 AM 51.0°F10.6°C 39.6°F4.2°C 65% 5.8 mph S9.3 kmh S 11.5 mph18.5 kmh 29.67 in1004.7 mb - 0.00 in0.0 mm 0.00 in0.0 mm
12:45 AM 51.3°F10.7°C 39.5°F4.2°C 64% 6.9 mph S11.1 kmh S 11.5 mph18.5 kmh 29.67 in1004.7 mb - 0.00 in0.0 mm 0.00 in0.0 mm
12:50 AM 51.3°F10.7°C 39.5°F4.2°C 64% 5.8 mph S9.3 kmh S 9.2 mph14.8 kmh 29.66 in1004.4 mb - 0.00 in0.0 mm 0.00 in0.0 mm
12:55 AM 51.4°F10.8°C 39.6°F4.2°C 64% 3.5 mph SSE5.6 kmh SSE 9.2 mph14.8 kmh 29.66 in1004.4 mb - 0.00 in0.0 mm 0.00 in0.0 mm
01:00 AM 51.3°F10.7°C 39.5°F4.2°C 64% 2.3 mph S3.7 kmh S 5.8 mph9.3 kmh 29.66 in1004.4 mb - 0.00 in0.0 mm 0.00 in0.0 mm
01:10 AM 51.3°F10.7°C 39.5°F4.2°C 64% 6.9 mph S11.1 kmh S 11.5 mph18.5 kmh 29.66 in1004.4 mb - 0.00 in0.0 mm 0.00 in0.0 mm
01:15 AM 51.4°F10.8°C 39.6°F4.2°C 64% 4.6 mph S7.4 kmh S 8.1 mph13.0 kmh 29.66 in1004.4 mb - 0.00 in0.0 mm 0.00 in0.0 mm
01:20 AM 51.3°F10.7°C 39.5°F4.2°C 64% 1.2 mph SSE1.9 kmh SSE 4.6 mph7.4 kmh 29.66 in1004.4 mb - 0.00 in0.0 mm 0.00 in0.0 mm
01:25 AM 51.2°F10.7°C 39.4°F4.1°C 64% 1.2 mph S1.9 kmh S 4.6 mph7.4 kmh 29.66 in1004.4 mb - 0.00 in0.0 mm 0.00 in0.0 mm
01:30 AM 51.2°F10.7°C 39.4°F4.1°C 64% 3.5 mph S5.6 kmh S 4.6 mph7.4 kmh 29.66 in1004.4 mb - 0.00 in0.0 mm 0.00 in0.0 mm
01:35 AM 51.3°F10.7°C 39.5°F4.2°C 64% 3.5 mph S5.6 kmh S 4.6 mph7.4 kmh 29.65 in1004.1 mb - 0.00 in0.0 mm 0.00 in0.0 mm
01:40 AM 51.4°F10.8°C 39.6°F4.2°C 64% 4.6 mph S7.4 kmh S 5.8 mph9.3 kmh 29.65 in1004.1 mb - 0.00 in0.0 mm 0.00 in0.0 mm
01:45 AM 51.5°F10.8°C 39.3°F4.1°C 63% 3.5 mph SSE5.6 kmh SSE 4.6 mph7.4 kmh 29.65 in1004.1 mb - 0.00 in0.0 mm 0.00 in0.0 mm
01:50 AM 51.6°F10.9°C 39.4°F4.1°C 63% 2.3 mph SE3.7 kmh SE 3.5 mph5.6 kmh 29.64 in1003.7 mb - 0.00 in0.0 mm 0.00 in0.0 mm
01:55 AM 51.7°F10.9°C 39.5°F4.2°C 63% Calm Calm 4.6 mph7.4 kmh 29.64 in1003.7 mb - 0.00 in0.0 mm 0.00 in0.0 mm
02:00 AM 51.7°F10.9°C 39.5°F4.2°C 63% 2.3 mph SSE3.7 kmh SSE 5.8 mph9.3 kmh 29.64 in1003.7 mb - 0.00 in0.0 mm 0.00 in0.0 mm
02:10 AM 51.5°F10.8°C 39.3°F4.1°C 63% 3.5 mph SSE5.6 kmh SSE 8.1 mph13.0 kmh 29.64 in1003.7 mb - 0.00 in0.0 mm 0.00 in0.0 mm
02:15 AM 51.6°F10.9°C 39.4°F4.1°C 63% 6.9 mph SSE11.1 kmh SSE 11.5 mph18.5 kmh 29.63 in1003.4 mb - 0.00 in0.0 mm 0.00 in0.0 mm
02:20 AM 51.9°F11.1°C 39.7°F4.3°C 63% 2.3 mph S3.7 kmh S 8.1 mph13.0 kmh 29.63 in1003.4 mb - 0.00 in0.0 mm 0.00 in0.0 mm
02:25 AM 51.9°F11.1°C 39.7°F4.3°C 63% 3.5 mph S5.6 kmh S 8.1 mph13.0 kmh 29.63 in1003.4 mb - 0.00 in0.0 mm 0.00 in0.0 mm
02:30 AM 51.9°F11.1°C 39.7°F4.3°C 63% 3.5 mph S5.6 kmh S 4.6 mph7.4 kmh 29.63 in1003.4 mb - 0.00 in0.0 mm 0.00 in0.0 mm
02:35 AM 51.9°F11.1°C 39.7°F4.3°C 63% 4.6 mph S7.4 kmh S 6.9 mph11.1 kmh 29.63 in1003.4 mb - 0.00 in0.0 mm 0.00 in0.0 mm
02:40 AM 51.9°F11.1°C 39.7°F4.3°C 63% 3.5 mph S5.6 kmh S 4.6 mph7.4 kmh 29.63 in1003.4 mb - 0.00 in0.0 mm 0.00 in0.0 mm
02:45 AM 51.8°F11.0°C 39.6°F4.2°C 63% 2.3 mph SSE3.7 kmh SSE 4.6 mph7.4 kmh 29.63 in1003.4 mb - 0.00 in0.0 mm 0.00 in0.0 mm
02:50 AM 51.8°F11.0°C 39.6°F4.2°C 63% 3.5 mph S5.6 kmh S 4.6 mph7.4 kmh 29.63 in1003.4 mb - 0.00 in0.0 mm 0.00 in0.0 mm
02:55 AM 51.7°F10.9°C 39.5°F4.2°C 63% 2.3 mph S3.7 kmh S 6.9 mph11.1 kmh 29.63 in1003.4 mb - 0.00 in0.0 mm 0.00 in0.0 mm
03:00 AM 51.7°F10.9°C 39.5°F4.2°C 63% 2.3 mph S3.7 kmh S 4.6 mph7.4 kmh 29.63 in1003.4 mb - 0.00 in0.0 mm 0.00 in0.0 mm
03:10 AM 51.6°F10.9°C 39.4°F4.1°C 63% Calm Calm 4.6 mph7.4 kmh 29.63 in1003.4 mb - 0.00 in0.0 mm 0.00 in0.0 mm
03:15 AM 51.5°F10.8°C 39.3°F4.1°C 63% 3.5 mph S5.6 kmh S 5.8 mph9.3 kmh 29.63 in1003.4 mb - 0.00 in0.0 mm 0.00 in0.0 mm
03:20 AM 51.6°F10.9°C 39.4°F4.1°C 63% 1.2 mph SSW1.9 kmh SSW 2.3 mph3.7 kmh 29.63 in1003.4 mb - 0.00 in0.0 mm 0.00 in0.0 mm
03:25 AM 51.6°F10.9°C 39.4°F4.1°C 63% 3.5 mph SW5.6 kmh SW 6.9 mph11.1 kmh 29.63 in1003.4 mb - 0.00 in0.0 mm 0.00 in0.0 mm
03:30 AM 51.7°F10.9°C 39.5°F4.2°C 63% 4.6 mph S7.4 kmh S 9.2 mph14.8 kmh 29.63 in1003.4 mb - 0.00 in0.0 mm 0.00 in0.0 mm
03:35 AM 51.8°F11.0°C 39.6°F4.2°C 63% 3.5 mph SSW5.6 kmh SSW 8.1 mph13.0 kmh 29.63 in1003.4 mb - 0.00 in0.0 mm 0.00 in0.0 mm
03:40 AM 51.7°F10.9°C 39.5°F4.2°C 63% 6.9 mph SSW11.1 kmh SSW 8.1 mph13.0 kmh 29.63 in1003.4 mb - 0.00 in0.0 mm 0.00 in0.0 mm
03:45 AM 51.6°F10.9°C 39.4°F4.1°C 63% 4.6 mph S7.4 kmh S 10.4 mph16.7 kmh 29.63 in1003.4 mb - 0.00 in0.0 mm 0.00 in0.0 mm
03:50 AM 51.6°F10.9°C 39.4°F4.1°C 63% 4.6 mph S7.4 kmh S 8.1 mph13.0 kmh 29.63 in1003.4 mb - 0.00 in0.0 mm 0.00 in0.0 mm
03:55 AM 51.5°F10.8°C 39.3°F4.1°C 63% 5.8 mph SSW9.3 kmh SSW 9.2 mph14.8 kmh 29.63 in1003.4 mb - 0.00 in0.0 mm 0.00 in0.0 mm
04:00 AM 51.5°F10.8°C 39.3°F4.1°C 63% 5.8 mph S9.3 kmh S 10.4 mph16.7 kmh 29.63 in1003.4 mb - 0.00 in0.0 mm 0.00 in0.0 mm
04:10 AM 51.3°F10.7°C 39.5°F4.2°C 64% 4.6 mph S7.4 kmh S 10.4 mph16.7 kmh 29.62 in1003.0 mb - 0.00 in0.0 mm 0.00 in0.0 mm
04:15 AM 51.3°F10.7°C 39.5°F4.2°C 64% 5.8 mph S9.3 kmh S 8.1 mph13.0 kmh 29.62 in1003.0 mb - 0.00 in0.0 mm 0.00 in0.0 mm
04:20 AM 51.3°F10.7°C 39.5°F4.2°C 64% 5.8 mph S9.3 kmh S 9.2 mph14.8 kmh 29.62 in1003.0 mb - 0.00 in0.0 mm 0.00 in0.0 mm
04:25 AM 51.2°F10.7°C 39.8°F4.3°C 65% 6.9 mph S11.1 kmh S 17.3 mph27.8 kmh 29.62 in1003.0 mb - 0.00 in0.0 mm 0.00 in0.0 mm
04:30 AM 51.2°F10.7°C 39.8°F4.3°C 65% 6.9 mph S11.1 kmh S 10.4 mph16.7 kmh 29.62 in1003.0 mb - 0.00 in0.0 mm 0.00 in0.0 mm
04:35 AM 51.2°F10.7°C 39.8°F4.3°C 65% 4.6 mph S7.4 kmh S 10.4 mph16.7 kmh 29.62 in1003.0 mb - 0.00 in0.0 mm 0.00 in0.0 mm
04:40 AM 51.3°F10.7°C 39.9°F4.4°C 65% 5.8 mph S9.3 kmh S 8.1 mph13.0 kmh 29.62 in1003.0 mb - 0.00 in0.0 mm 0.00 in0.0 mm
04:45 AM 51.3°F10.7°C 39.5°F4.2°C 64% 6.9 mph SSW11.1 kmh SSW 9.2 mph14.8 kmh 29.62 in1003.0 mb - 0.00 in0.0 mm 0.00 in0.0 mm
04:50 AM 51.3°F10.7°C 39.6°F4.2°C 64% 6.9 mph S11.1 kmh S 9.2 mph14.8 kmh 29.62 in1003.0 mb - 0.00 in0.0 mm 0.00 in0.0 mm
04:55 AM 51.4°F10.8°C 39.6°F4.2°C 64% 5.8 mph S9.3 kmh S 10.4 mph16.7 kmh 29.62 in1003.0 mb - 0.00 in0.0 mm 0.00 in0.0 mm
05:00 AM 51.4°F10.8°C 39.6°F4.2°C 64% 4.6 mph S7.4 kmh S 8.1 mph13.0 kmh 29.62 in1003.0 mb - 0.00 in0.0 mm 0.00 in0.0 mm
05:10 AM 51.3°F10.7°C 39.9°F4.4°C 65% 6.9 mph S11.1 kmh S 11.5 mph18.5 kmh 29.62 in1003.0 mb - 0.00 in0.0 mm 0.00 in0.0 mm
05:15 AM 51.3°F10.7°C 39.6°F4.2°C 64% 8.1 mph S13.0 kmh S 8.1 mph13.0 kmh 29.61 in1002.7 mb - 0.00 in0.0 mm 0.00 in0.0 mm
05:20 AM 51.4°F10.8°C 39.6°F4.2°C 64% 5.8 mph S9.3 kmh S 8.1 mph13.0 kmh 29.61 in1002.7 mb - 0.00 in0.0 mm 0.00 in0.0 mm
05:25 AM 51.3°F10.7°C 39.5°F4.2°C 64% 5.8 mph S9.3 kmh S 9.2 mph14.8 kmh 29.61 in1002.7 mb - 0.00 in0.0 mm 0.00 in0.0 mm
05:30 AM 51.3°F10.7°C 39.5°F4.2°C 64% 4.6 mph S7.4 kmh S 5.8 mph9.3 kmh 29.61 in1002.7 mb - 0.00 in0.0 mm 0.00 in0.0 mm
05:35 AM 51.2°F10.7°C 39.8°F4.3°C 65% 4.6 mph S7.4 kmh S 6.9 mph11.1 kmh 29.61 in1002.7 mb - 0.00 in0.0 mm 0.00 in0.0 mm
05:40 AM 51.0°F10.6°C 39.6°F4.2°C 65% 4.6 mph SE7.4 kmh SE 8.1 mph13.0 kmh 29.61 in1002.7 mb - 0.00 in0.0 mm 0.00 in0.0 mm
05:45 AM 50.7°F10.4°C 39.3°F4.1°C 65% 2.3 mph S3.7 kmh S 5.8 mph9.3 kmh 29.61 in1002.7 mb - 0.00 in0.0 mm 0.00 in0.0 mm
05:50 AM 50.4°F10.2°C 39.5°F4.2°C 66% 5.8 mph S9.3 kmh S 9.2 mph14.8 kmh 29.61 in1002.7 mb - 0.00 in0.0 mm 0.00 in0.0 mm
05:55 AM 50.4°F10.2°C 39.5°F4.2°C 66% 6.9 mph SSE11.1 kmh SSE 11.5 mph18.5 kmh 29.60 in1002.4 mb - 0.00 in0.0 mm 0.00 in0.0 mm
06:00 AM 50.4°F10.2°C 39.5°F4.2°C 66% 5.8 mph S9.3 kmh S 11.5 mph18.5 kmh 29.60 in1002.4 mb - 0.00 in0.0 mm 0.00 in0.0 mm
06:10 AM 50.3°F10.2°C 39.4°F4.1°C 66% 6.9 mph S11.1 kmh S 11.5 mph18.5 kmh 29.61 in1002.7 mb - 0.00 in0.0 mm 0.00 in0.0 mm
06:15 AM 50.5°F10.3°C 39.5°F4.2°C 66% 6.9 mph S11.1 kmh S 11.5 mph18.5 kmh 29.61 in1002.7 mb - 0.00 in0.0 mm 0.00 in0.0 mm
06:20 AM 50.5°F10.3°C 39.6°F4.2°C 66% 5.8 mph S9.3 kmh S 11.5 mph18.5 kmh 29.61 in1002.7 mb - 0.00 in0.0 mm 0.00 in0.0 mm
06:25 AM 50.5°F10.3°C 39.6°F4.2°C 66% 5.8 mph S9.3 kmh S 12.7 mph20.4 kmh 29.61 in1002.7 mb - 0.00 in0.0 mm 0.00 in0.0 mm
06:30 AM 50.5°F10.3°C 39.9°F4.4°C 67% 8.1 mph S13.0 kmh S 13.8 mph22.2 kmh 29.61 in1002.7 mb - 0.00 in0.0 mm 0.00 in0.0 mm
06:35 AM 50.6°F10.3°C 40.0°F4.4°C 67% 6.9 mph S11.1 kmh S 10.4 mph16.7 kmh 29.61 in1002.7 mb - 0.00 in0.0 mm 0.00 in0.0 mm
06:40 AM 50.8°F10.4°C 40.2°F4.6°C 67% 6.9 mph S11.1 kmh S 11.5 mph18.5 kmh 29.61 in1002.7 mb - 0.00 in0.0 mm 0.00 in0.0 mm
06:45 AM 51.0°F10.6°C 40.4°F4.7°C 67% 6.9 mph S11.1 kmh S 11.5 mph18.5 kmh 29.60 in1002.4 mb - 0.00 in0.0 mm 0.00 in0.0 mm
06:50 AM 51.1°F10.6°C 40.1°F4.5°C 66% 8.1 mph S13.0 kmh S 11.5 mph18.5 kmh 29.60 in1002.4 mb - 0.00 in0.0 mm 0.00 in0.0 mm
06:55 AM 51.2°F10.7°C 40.2°F4.6°C 66% 8.1 mph S13.0 kmh S 13.8 mph22.2 kmh 29.60 in1002.4 mb - 0.00 in0.0 mm 0.00 in0.0 mm
07:00 AM 51.4°F10.8°C 40.4°F4.7°C 66% 9.2 mph S14.8 kmh S 13.8 mph22.2 kmh 29.60 in1002.4 mb - 0.00 in0.0 mm 0.00 in0.0 mm
07:10 AM 51.9°F11.1°C 40.5°F4.7°C 65% 9.2 mph S14.8 kmh S 13.8 mph22.2 kmh 29.60 in1002.4 mb - 0.00 in0.0 mm 0.00 in0.0 mm
07:15 AM 52.1°F11.2°C 40.7°F4.8°C 65% 10.4 mph S16.7 kmh S 15.0 mph24.1 kmh 29.60 in1002.4 mb - 0.00 in0.0 mm 0.00 in0.0 mm
07:20 AM 52.2°F11.2°C 40.8°F4.9°C 65% 6.9 mph S11.1 kmh S 10.4 mph16.7 kmh 29.60 in1002.4 mb - 0.00 in0.0 mm 0.00 in0.0 mm
07:25 AM 52.2°F11.2°C 40.8°F4.9°C 65% 6.9 mph S11.1 kmh S 15.0 mph24.1 kmh 29.59 in1002.0 mb - 0.00 in0.0 mm 0.00 in0.0 mm
07:30 AM 52.1°F11.2°C 40.7°F4.8°C 65% 5.8 mph S9.3 kmh S 10.4 mph16.7 kmh 29.59 in1002.0 mb - 0.00 in0.0 mm 0.00 in0.0 mm
07:35 AM 52.2°F11.2°C 40.8°F4.9°C 65% 4.6 mph S7.4 kmh S 11.5 mph18.5 kmh 29.59 in1002.0 mb - 0.00 in0.0 mm 0.00 in0.0 mm
07:40 AM 52.3°F11.3°C 40.9°F4.9°C 65% 4.6 mph S7.4 kmh S 6.9 mph11.1 kmh 29.59 in1002.0 mb - 0.00 in0.0 mm 0.00 in0.0 mm
07:45 AM 52.3°F11.3°C 40.5°F4.7°C 64% 5.8 mph S9.3 kmh S 6.9 mph11.1 kmh 29.59 in1002.0 mb - 0.00 in0.0 mm 0.00 in0.0 mm
07:50 AM 52.4°F11.3°C 40.5°F4.7°C 64% 6.9 mph S11.1 kmh S 12.7 mph20.4 kmh 29.59 in1002.0 mb - 0.00 in0.0 mm 0.00 in0.0 mm
07:55 AM 52.4°F11.3°C 40.6°F4.8°C 64% 6.9 mph S11.1 kmh S 9.2 mph14.8 kmh 29.59 in1002.0 mb - 0.00 in0.0 mm 0.00 in0.0 mm
08:00 AM 52.4°F11.3°C 40.6°F4.8°C 64% 6.9 mph SSE11.1 kmh SSE 9.2 mph14.8 kmh 29.59 in1002.0 mb - 0.00 in0.0 mm 0.00 in0.0 mm
08:10 AM 52.5°F11.4°C 40.6°F4.8°C 64% 9.2 mph S14.8 kmh S 12.7 mph20.4 kmh 29.59 in1002.0 mb - 0.00 in0.0 mm 0.00 in0.0 mm
08:15 AM 52.6°F11.4°C 40.8°F4.9°C 64% 8.1 mph S13.0 kmh S 13.8 mph22.2 kmh 29.60 in1002.4 mb - 0.00 in0.0 mm 0.00 in0.0 mm
08:20 AM 52.6°F11.4°C 40.8°F4.9°C 64% 6.9 mph SW11.1 kmh SW 9.2 mph14.8 kmh 29.62 in1003.0 mb - 0.00 in0.0 mm 0.00 in0.0 mm
08:25 AM 52.5°F11.4°C 40.7°F4.8°C 64% 4.6 mph SSW7.4 kmh SSW 8.1 mph13.0 kmh 29.61 in1002.7 mb - 0.00 in0.0 mm 0.00 in0.0 mm
08:30 AM 52.3°F11.3°C 40.9°F4.9°C 65% 4.6 mph S7.4 kmh S 4.6 mph7.4 kmh 29.61 in1002.7 mb - 0.00 in0.0 mm 0.00 in0.0 mm
08:35 AM 52.2°F11.2°C 40.8°F4.9°C 65% 3.5 mph SSW5.6 kmh SSW 6.9 mph11.1 kmh 29.62 in1003.0 mb - 0.00 in0.0 mm 0.00 in0.0 mm
08:40 AM 52.2°F11.2°C 41.2°F5.1°C 66% 2.3 mph S3.7 kmh S 4.6 mph7.4 kmh 29.61 in1002.7 mb - 0.00 in0.0 mm 0.00 in0.0 mm
08:45 AM 52.1°F11.2°C 41.1°F5.1°C 66% 4.6 mph SSE7.4 kmh SSE 8.1 mph13.0 kmh 29.61 in1002.7 mb - 0.00 in0.0 mm 0.00 in0.0 mm
08:50 AM 52.2°F11.2°C 41.2°F5.1°C 66% 6.9 mph SSW11.1 kmh SSW 9.2 mph14.8 kmh 29.61 in1002.7 mb - 0.00 in0.0 mm 0.00 in0.0 mm
08:55 AM 52.4°F11.3°C 41.0°F5.0°C 65% 9.2 mph S14.8 kmh S 19.6 mph31.5 kmh 29.61 in1002.7 mb - 0.00 in0.0 mm 0.00 in0.0 mm
09:00 AM 52.8°F11.6°C 41.4°F5.2°C 65% 8.1 mph S13.0 kmh S 12.7 mph20.4 kmh 29.61 in1002.7 mb - 0.00 in0.0 mm 0.00 in0.0 mm
09:10 AM 53.2°F11.8°C 41.7°F5.4°C 65% 10.4 mph S16.7 kmh S 15.0 mph24.1 kmh 29.61 in1002.7 mb - 0.00 in0.0 mm 0.00 in0.0 mm
09:15 AM 53.2°F11.8°C 41.7°F5.4°C 65% 8.1 mph S13.0 kmh S 21.9 mph35.2 kmh 29.61 in1002.7 mb - 0.00 in0.0 mm 0.00 in0.0 mm
09:20 AM 53.3°F11.8°C 41.8°F5.4°C 65% 10.4 mph S16.7 kmh S 13.8 mph22.2 kmh 29.61 in1002.7 mb - 0.00 in0.0 mm 0.00 in0.0 mm
09:25 AM 53.4°F11.9°C 41.9°F5.5°C 65% 6.9 mph S11.1 kmh S 13.8 mph22.2 kmh 29.60 in1002.4 mb - 0.00 in0.0 mm 0.00 in0.0 mm
09:30 AM 53.5°F11.9°C 41.6°F5.3°C 64% 12.7 mph S20.4 kmh S 18.4 mph29.6 kmh 29.60 in1002.4 mb - 0.00 in0.0 mm 0.00 in0.0 mm
09:35 AM 53.7°F12.1°C 41.8°F5.4°C 64% 10.4 mph S16.7 kmh S 19.6 mph31.5 kmh 29.60 in1002.4 mb - 0.00 in0.0 mm 0.00 in0.0 mm
09:40 AM 53.8°F12.1°C 41.9°F5.5°C 64% 10.4 mph S16.7 kmh S 13.8 mph22.2 kmh 29.59 in1002.0 mb - 0.00 in0.0 mm 0.00 in0.0 mm
09:45 AM 53.9°F12.2°C 42.0°F5.6°C 64% 8.1 mph S13.0 kmh S 11.5 mph18.5 kmh 29.60 in1002.4 mb - 0.00 in0.0 mm 0.00 in0.0 mm
09:50 AM 53.9°F12.2°C 42.0°F5.6°C 64% 8.1 mph S13.0 kmh S 11.5 mph18.5 kmh 29.61 in1002.7 mb - 0.00 in0.0 mm 0.00 in0.0 mm
09:55 AM 53.9°F12.2°C 42.0°F5.6°C 64% 6.9 mph SSW11.1 kmh SSW 19.6 mph31.5 kmh 29.61 in1002.7 mb - 0.00 in0.0 mm 0.00 in0.0 mm
10:00 AM 54.0°F12.2°C 42.5°F5.8°C 65% 8.1 mph S13.0 kmh S 13.8 mph22.2 kmh 29.60 in1002.4 mb - 0.00 in0.0 mm 0.00 in0.0 mm
10:10 AM 54.1°F12.3°C 42.6°F5.9°C 65% 10.4 mph S16.7 kmh S 21.9 mph35.2 kmh 29.61 in1002.7 mb - 0.00 in0.0 mm 0.00 in0.0 mm
10:15 AM 54.2°F12.3°C 42.7°F5.9°C 65% 9.2 mph S14.8 kmh S 11.5 mph18.5 kmh 29.61 in1002.7 mb - 0.00 in0.0 mm 0.00 in0.0 mm
10:20 AM 54.2°F12.3°C 42.7°F5.9°C 65% 8.1 mph SSW13.0 kmh SSW 11.5 mph18.5 kmh 29.61 in1002.7 mb - 0.00 in0.0 mm 0.00 in0.0 mm
10:25 AM 54.3°F12.4°C 43.2°F6.2°C 66% 4.6 mph S7.4 kmh S 13.8 mph22.2 kmh 29.61 in1002.7 mb - 0.00 in0.0 mm 0.00 in0.0 mm
10:30 AM 54.4°F12.4°C 43.3°F6.3°C 66% 8.1 mph SSW13.0 kmh SSW 12.7 mph20.4 kmh 29.61 in1002.7 mb - 0.00 in0.0 mm 0.00 in0.0 mm
10:35 AM 54.6°F12.6°C 43.5°F6.4°C 66% 12.7 mph SSW20.4 kmh SSW 17.3 mph27.8 kmh 29.61 in1002.7 mb - 0.00 in0.0 mm 0.00 in0.0 mm
10:40 AM 54.9°F12.7°C 43.3°F6.3°C 65% 8.1 mph S13.0 kmh S 16.1 mph25.9 kmh 29.61 in1002.7 mb - 0.00 in0.0 mm 0.00 in0.0 mm
10:45 AM 55.1°F12.8°C 43.5°F6.4°C 65% 8.1 mph SSW13.0 kmh SSW 12.7 mph20.4 kmh 29.61 in1002.7 mb - 0.00 in0.0 mm 0.00 in0.0 mm
10:50 AM 55.3°F12.9°C 43.7°F6.5°C 65% 6.9 mph SSW11.1 kmh SSW 11.5 mph18.5 kmh 29.61 in1002.7 mb - 0.00 in0.0 mm 0.00 in0.0 mm
10:55 AM 55.4°F13.0°C 43.4°F6.3°C 64% 9.2 mph SSW14.8 kmh SSW 17.3 mph27.8 kmh 29.60 in1002.4 mb - 0.00 in0.0 mm 0.00 in0.0 mm
11:00 AM 55.5°F13.1°C 43.5°F6.4°C 64% 8.1 mph SSW13.0 kmh SSW 15.0 mph24.1 kmh 29.60 in1002.4 mb - 0.00 in0.0 mm 0.00 in0.0 mm
11:10 AM 55.7°F13.2°C 43.7°F6.5°C 64% 6.9 mph SSW11.1 kmh SSW 11.5 mph18.5 kmh 29.60 in1002.4 mb - 0.00 in0.0 mm 0.00 in0.0 mm
11:15 AM 55.9°F13.3°C 43.9°F6.6°C 64% 8.1 mph S13.0 kmh S 13.8 mph22.2 kmh 29.60 in1002.4 mb - 0.00 in0.0 mm 0.00 in0.0 mm
11:20 AM 56.2°F13.4°C 44.1°F6.7°C 64% 6.9 mph SSW11.1 kmh SSW 20.7 mph33.3 kmh 29.60 in1002.4 mb - 0.00 in0.0 mm 0.00 in0.0 mm
11:25 AM 56.4°F13.6°C 44.0°F6.7°C 63% 9.2 mph S14.8 kmh S 15.0 mph24.1 kmh 29.60 in1002.4 mb - 0.00 in0.0 mm 0.00 in0.0 mm
11:30 AM 56.8°F13.8°C 44.3°F6.8°C 63% 8.1 mph S13.0 kmh S 26.5 mph42.6 kmh 29.59 in1002.0 mb - 0.00 in0.0 mm 0.00 in0.0 mm
11:35 AM 57.1°F13.9°C 44.2°F6.8°C 62% 8.1 mph S13.0 kmh S 16.1 mph25.9 kmh 29.59 in1002.0 mb - 0.00 in0.0 mm 0.00 in0.0 mm
11:40 AM 57.3°F14.1°C 44.4°F6.9°C 62% 9.2 mph SSW14.8 kmh SSW 15.0 mph24.1 kmh 29.59 in1002.0 mb - 0.00 in0.0 mm 0.00 in0.0 mm
11:45 AM 57.5°F14.2°C 44.1°F6.7°C 61% 8.1 mph SSW13.0 kmh SSW 15.0 mph24.1 kmh 29.59 in1002.0 mb - 0.00 in0.0 mm 0.00 in0.0 mm
11:50 AM 57.6°F14.2°C 44.2°F6.8°C 61% 12.7 mph SSW20.4 kmh SSW 21.9 mph35.2 kmh 29.58 in1001.7 mb - 0.00 in0.0 mm 0.00 in0.0 mm
11:55 AM 57.7°F14.3°C 44.3°F6.8°C 61% 11.5 mph SSW18.5 kmh SSW 20.7 mph33.3 kmh 29.58 in1001.7 mb - 0.00 in0.0 mm 0.00 in0.0 mm
12:00 PM 57.8°F14.3°C 44.4°F6.9°C 61% 12.7 mph S20.4 kmh S 26.5 mph42.6 kmh 29.58 in1001.7 mb - 0.00 in0.0 mm 0.00 in0.0 mm
12:10 PM 57.9°F14.4°C 44.5°F6.9°C 61% 10.4 mph S16.7 kmh S 17.3 mph27.8 kmh 29.58 in1001.7 mb - 0.00 in0.0 mm 0.00 in0.0 mm
12:15 PM 58.0°F14.4°C 44.6°F7.0°C 61% 9.2 mph SSW14.8 kmh SSW 23.0 mph37.0 kmh 29.58 in1001.7 mb - 0.00 in0.0 mm 0.00 in0.0 mm
12:20 PM 58.1°F14.5°C 44.3°F6.8°C 60% 10.4 mph SSW16.7 kmh SSW 16.1 mph25.9 kmh 29.58 in1001.7 mb - 0.00 in0.0 mm 0.00 in0.0 mm
12:25 PM 58.3°F14.6°C 44.5°F6.9°C 60% 10.4 mph SSW16.7 kmh SSW 16.1 mph25.9 kmh 29.58 in1001.7 mb - 0.00 in0.0 mm 0.00 in0.0 mm
12:30 PM 58.5°F14.7°C 44.7°F7.1°C 60% 10.4 mph S16.7 kmh S 18.4 mph29.6 kmh 29.58 in1001.7 mb - 0.00 in0.0 mm 0.00 in0.0 mm
12:35 PM 58.6°F14.8°C 44.8°F7.1°C 60% 6.9 mph SSW11.1 kmh SSW 6.9 mph11.1 kmh 29.58 in1001.7 mb - 0.00 in0.0 mm 0.00 in0.0 mm
12:40 PM 58.8°F14.9°C 44.9°F7.2°C 60% 11.5 mph SW18.5 kmh SW 20.7 mph33.3 kmh 29.59 in1002.0 mb - 0.00 in0.0 mm 0.00 in0.0 mm
12:45 PM 58.9°F14.9°C 45.0°F7.2°C 60% 6.9 mph SSW11.1 kmh SSW 12.7 mph20.4 kmh 29.59 in1002.0 mb - 0.00 in0.0 mm 0.00 in0.0 mm
12:50 PM 59.1°F15.1°C 45.2°F7.3°C 60% 16.1 mph SW25.9 kmh SW 26.5 mph42.6 kmh 29.59 in1002.0 mb - 0.00 in0.0 mm 0.00 in0.0 mm
12:55 PM 59.2°F15.1°C 44.9°F7.2°C 59% 11.5 mph SW18.5 kmh SW 29.9 mph48.1 kmh 29.59 in1002.0 mb - 0.00 in0.0 mm 0.00 in0.0 mm
01:00 PM 59.3°F15.2°C 45.0°F7.2°C 59% 11.5 mph SSW18.5 kmh SSW 18.4 mph29.6 kmh 29.59 in1002.0 mb - 0.00 in0.0 mm 0.00 in0.0 mm
01:10 PM 58.9°F14.9°C 45.0°F7.2°C 60% 8.1 mph SSW13.0 kmh SSW 16.1 mph25.9 kmh 29.59 in1002.0 mb - 0.00 in0.0 mm 0.00 in0.0 mm
01:15 PM 58.8°F14.9°C 44.9°F7.2°C 60% 10.4 mph S16.7 kmh S 19.6 mph31.5 kmh 29.59 in1002.0 mb - 0.00 in0.0 mm 0.00 in0.0 mm
01:20 PM 59.0°F15.0°C 45.1°F7.3°C 60% 8.1 mph SW13.0 kmh SW 19.6 mph31.5 kmh 29.59 in1002.0 mb - 0.00 in0.0 mm 0.00 in0.0 mm
01:25 PM 59.1°F15.1°C 45.2°F7.3°C 60% 11.5 mph SW18.5 kmh SW 23.0 mph37.0 kmh 29.60 in1002.4 mb - 0.00 in0.0 mm 0.00 in0.0 mm
01:30 PM 59.1°F15.1°C 45.2°F7.3°C 60% 12.7 mph SW20.4 kmh SW 23.0 mph37.0 kmh 29.60 in1002.4 mb - 0.00 in0.0 mm 0.00 in0.0 mm
01:35 PM 59.1°F15.1°C 45.2°F7.3°C 60% 11.5 mph SW18.5 kmh SW 27.6 mph44.4 kmh 29.60 in1002.4 mb - 0.00 in0.0 mm 0.00 in0.0 mm
01:40 PM 59.1°F15.1°C 45.2°F7.3°C 60% 13.8 mph SW22.2 kmh SW 18.4 mph29.6 kmh 29.60 in1002.4 mb - 0.00 in0.0 mm 0.00 in0.0 mm
01:45 PM 59.1°F15.1°C 45.2°F7.3°C 60% 16.1 mph SW25.9 kmh SW 25.3 mph40.7 kmh 29.61 in1002.7 mb - 0.00 in0.0 mm 0.00 in0.0 mm
01:50 PM 59.1°F15.1°C 45.2°F7.3°C 60% 17.3 mph SW27.8 kmh SW 32.2 mph51.8 kmh 29.61 in1002.7 mb - 0.00 in0.0 mm 0.00 in0.0 mm
01:55 PM 59.0°F15.0°C 45.6°F7.6°C 61% 11.5 mph SW18.5 kmh SW 20.7 mph33.3 kmh 29.61 in1002.7 mb - 0.00 in0.0 mm 0.00 in0.0 mm
02:00 PM 58.9°F14.9°C 45.5°F7.5°C 61% 9.2 mph SW14.8 kmh SW 17.3 mph27.8 kmh 29.60 in1002.4 mb - 0.00 in0.0 mm 0.00 in0.0 mm
02:10 PM 58.9°F14.9°C 45.5°F7.5°C 61% 13.8 mph SW22.2 kmh SW 27.6 mph44.4 kmh 29.61 in1002.7 mb - 0.00 in0.0 mm 0.00 in0.0 mm
02:15 PM 58.7°F14.8°C 45.3°F7.4°C 61% 11.5 mph SSW18.5 kmh SSW 19.6 mph31.5 kmh 29.61 in1002.7 mb - 0.00 in0.0 mm 0.00 in0.0 mm
02:20 PM 58.5°F14.7°C 45.5°F7.5°C 62% 17.3 mph SSW27.8 kmh SSW 33.4 mph53.8 kmh 29.61 in1002.7 mb - 0.00 in0.0 mm 0.00 in0.0 mm
02:25 PM 58.3°F14.6°C 45.3°F7.4°C 62% 9.2 mph SW14.8 kmh SW 16.1 mph25.9 kmh 29.61 in1002.7 mb - 0.00 in0.0 mm 0.00 in0.0 mm
02:30 PM 58.2°F14.6°C 45.7°F7.6°C 63% 10.4 mph SSW16.7 kmh SSW 27.6 mph44.4 kmh 29.61 in1002.7 mb - 0.00 in0.0 mm 0.00 in0.0 mm
02:35 PM 58.4°F14.7°C 45.8°F7.7°C 63% 9.2 mph SW14.8 kmh SW 20.7 mph33.3 kmh 29.61 in1002.7 mb - 0.00 in0.0 mm 0.00 in0.0 mm
02:40 PM 58.5°F14.7°C 45.9°F7.7°C 63% 11.5 mph SW18.5 kmh SW 21.9 mph35.2 kmh 29.62 in1003.0 mb - 0.00 in0.0 mm 0.00 in0.0 mm
02:45 PM 58.5°F14.7°C 45.9°F7.7°C 63% 9.2 mph SW14.8 kmh SW 25.3 mph40.7 kmh 29.62 in1003.0 mb - 0.00 in0.0 mm 0.00 in0.0 mm
02:50 PM 58.4°F14.7°C 45.8°F7.7°C 63% 11.5 mph SSW18.5 kmh SSW 15.0 mph24.1 kmh 29.62 in1003.0 mb - 0.00 in0.0 mm 0.00 in0.0 mm
02:55 PM 58.3°F14.6°C 45.8°F7.7°C 63% 11.5 mph SSW18.5 kmh SSW 23.0 mph37.0 kmh 29.62 in1003.0 mb - 0.00 in0.0 mm 0.00 in0.0 mm
03:00 PM 58.2°F14.6°C 46.1°F7.8°C 64% 10.4 mph SSW16.7 kmh SSW 23.0 mph37.0 kmh 29.62 in1003.0 mb - 0.00 in0.0 mm 0.00 in0.0 mm
03:10 PM 58.2°F14.6°C 46.1°F7.8°C 64% 5.8 mph SSW9.3 kmh SSW 12.7 mph20.4 kmh 29.62 in1003.0 mb - 0.00 in0.0 mm 0.00 in0.0 mm
03:15 PM 58.3°F14.6°C 46.2°F7.9°C 64% 9.2 mph SW14.8 kmh SW 16.1 mph25.9 kmh 29.62 in1003.0 mb - 0.00 in0.0 mm 0.00 in0.0 mm
03:20 PM 58.3°F14.6°C 46.2°F7.9°C 64% 9.2 mph SSW14.8 kmh SSW 17.3 mph27.8 kmh 29.62 in1003.0 mb - 0.00 in0.0 mm 0.00 in0.0 mm
03:25 PM 58.1°F14.5°C 46.4°F8.0°C 65% 13.8 mph SW22.2 kmh SW 20.7 mph33.3 kmh 29.63 in1003.4 mb - 0.00 in0.0 mm 0.00 in0.0 mm
03:35 PM 57.8°F14.3°C 46.1°F7.8°C 65% 11.5 mph SW18.5 kmh SW 17.3 mph27.8 kmh 29.63 in1003.4 mb - 0.00 in0.0 mm 0.00 in0.0 mm
03:40 PM 57.7°F14.3°C 46.4°F8.0°C 66% 10.4 mph SW16.7 kmh SW 23.0 mph37.0 kmh 29.64 in1003.7 mb - 0.00 in0.0 mm 0.00 in0.0 mm
03:55 PM 57.6°F14.2°C 46.7°F8.2°C 67% 9.2 mph SW14.8 kmh SW 12.7 mph20.4 kmh 29.64 in1003.7 mb - 0.00 in0.0 mm 0.00 in0.0 mm
04:00 PM 57.5°F14.2°C 46.6°F8.1°C 67% 8.1 mph SW13.0 kmh SW 16.1 mph25.9 kmh 29.64 in1003.7 mb - 0.00 in0.0 mm 0.00 in0.0 mm
04:10 PM 57.5°F14.2°C 47.0°F8.3°C 68% 10.4 mph SSW16.7 kmh SSW 18.4 mph29.6 kmh 29.64 in1003.7 mb - 0.00 in0.0 mm 0.00 in0.0 mm
04:15 PM 57.5°F14.2°C 47.0°F8.3°C 68% 4.6 mph SW7.4 kmh SW 9.2 mph14.8 kmh 29.64 in1003.7 mb - 0.00 in0.0 mm 0.00 in0.0 mm
04:20 PM 57.5°F14.2°C 47.0°F8.3°C 68% 11.5 mph SW18.5 kmh SW 12.7 mph20.4 kmh 29.64 in1003.7 mb - 0.00 in0.0 mm 0.00 in0.0 mm
04:25 PM 57.5°F14.2°C 47.0°F8.3°C 68% 8.1 mph SSW13.0 kmh SSW 18.4 mph29.6 kmh 29.64 in1003.7 mb - 0.00 in0.0 mm 0.00 in0.0 mm
04:30 PM 57.5°F14.2°C 47.0°F8.3°C 68% 8.1 mph SW13.0 kmh SW 19.6 mph31.5 kmh 29.64 in1003.7 mb - 0.00 in0.0 mm 0.00 in0.0 mm
04:35 PM 57.6°F14.2°C 47.1°F8.4°C 68% 5.8 mph SSW9.3 kmh SSW 15.0 mph24.1 kmh 29.64 in1003.7 mb - 0.00 in0.0 mm 0.00 in0.0 mm
04:40 PM 57.5°F14.2°C 47.1°F8.4°C 68% 5.8 mph SSW9.3 kmh SSW 11.5 mph18.5 kmh 29.64 in1003.7 mb - 0.00 in0.0 mm 0.00 in0.0 mm
04:45 PM 57.5°F14.2°C 47.0°F8.3°C 68% 9.2 mph SW14.8 kmh SW 15.0 mph24.1 kmh 29.65 in1004.1 mb - 0.00 in0.0 mm 0.00 in0.0 mm
04:50 PM 57.5°F14.2°C 47.0°F8.3°C 68% 8.1 mph SSW13.0 kmh SSW 13.8 mph22.2 kmh 29.65 in1004.1 mb - 0.00 in0.0 mm 0.00 in0.0 mm
04:55 PM 57.5°F14.2°C 47.0°F8.3°C 68% 5.8 mph SSW9.3 kmh SSW 19.6 mph31.5 kmh 29.65 in1004.1 mb - 0.00 in0.0 mm 0.00 in0.0 mm
05:00 PM 57.5°F14.2°C 47.0°F8.3°C 68% 9.2 mph SW14.8 kmh SW 20.7 mph33.3 kmh 29.65 in1004.1 mb - 0.00 in0.0 mm 0.00 in0.0 mm
05:10 PM 57.5°F14.2°C 47.0°F8.3°C 68% 6.9 mph SSW11.1 kmh SSW 17.3 mph27.8 kmh 29.65 in1004.1 mb - 0.00 in0.0 mm 0.00 in0.0 mm
05:15 PM 57.5°F14.2°C 47.0°F8.3°C 68% 6.9 mph S11.1 kmh S 12.7 mph20.4 kmh 29.66 in1004.4 mb - 0.00 in0.0 mm 0.00 in0.0 mm
05:20 PM 57.5°F14.2°C 47.0°F8.3°C 68% 10.4 mph SW16.7 kmh SW 13.8 mph22.2 kmh 29.65 in1004.1 mb - 0.00 in0.0 mm 0.00 in0.0 mm
05:25 PM 57.4°F14.1°C 47.3°F8.5°C 69% 6.9 mph SSW11.1 kmh SSW 10.4 mph16.7 kmh 29.66 in1004.4 mb - 0.00 in0.0 mm 0.00 in0.0 mm
05:30 PM 57.3°F14.1°C 47.2°F8.4°C 69% 5.8 mph SW9.3 kmh SW 11.5 mph18.5 kmh 29.66 in1004.4 mb - 0.00 in0.0 mm 0.00 in0.0 mm
05:35 PM 57.2°F14.0°C 47.1°F8.4°C 69% 9.2 mph SW14.8 kmh SW 16.1 mph25.9 kmh 29.66 in1004.4 mb - 0.00 in0.0 mm 0.00 in0.0 mm
05:40 PM 57.0°F13.9°C 47.0°F8.3°C 69% 6.9 mph SSW11.1 kmh SSW 10.4 mph16.7 kmh 29.67 in1004.7 mb - 0.00 in0.0 mm 0.00 in0.0 mm
05:45 PM 56.9°F13.8°C 46.8°F8.2°C 69% 5.8 mph SSW9.3 kmh SSW 11.5 mph18.5 kmh 29.67 in1004.7 mb - 0.00 in0.0 mm 0.00 in0.0 mm
05:50 PM 56.8°F13.8°C 47.1°F8.4°C 70% 2.3 mph S3.7 kmh S 5.8 mph9.3 kmh 29.67 in1004.7 mb - 0.00 in0.0 mm 0.00 in0.0 mm
05:55 PM 56.8°F13.8°C 47.1°F8.4°C 70% 10.4 mph SW16.7 kmh SW 11.5 mph18.5 kmh 29.67 in1004.7 mb - 0.00 in0.0 mm 0.00 in0.0 mm
06:00 PM 56.8°F13.8°C 47.1°F8.4°C 70% 4.6 mph SSW7.4 kmh SSW 10.4 mph16.7 kmh 29.67 in1004.7 mb - 0.00 in0.0 mm 0.00 in0.0 mm
06:10 PM 56.7°F13.7°C 47.0°F8.3°C 70% 5.8 mph S9.3 kmh S 17.3 mph27.8 kmh 29.67 in1004.7 mb - 0.00 in0.0 mm 0.00 in0.0 mm
06:15 PM 56.8°F13.8°C 47.1°F8.4°C 70% 6.9 mph SSE11.1 kmh SSE 15.0 mph24.1 kmh 29.67 in1004.7 mb - 0.00 in0.0 mm 0.00 in0.0 mm
06:20 PM 56.8°F13.8°C 47.1°F8.4°C 70% 10.4 mph S16.7 kmh S 12.7 mph20.4 kmh 29.67 in1004.7 mb - 0.00 in0.0 mm 0.00 in0.0 mm
06:25 PM 56.8°F13.8°C 47.1°F8.4°C 70% 5.8 mph S9.3 kmh S 11.5 mph18.5 kmh 29.68 in1005.1 mb - 0.00 in0.0 mm 0.00 in0.0 mm
06:30 PM 56.7°F13.7°C 47.0°F8.3°C 70% 9.2 mph SSW14.8 kmh SSW 17.3 mph27.8 kmh 29.68 in1005.1 mb - 0.00 in0.0 mm 0.00 in0.0 mm
06:35 PM 56.7°F13.7°C 47.0°F8.3°C 70% 5.8 mph SSW9.3 kmh SSW 15.0 mph24.1 kmh 29.68 in1005.1 mb - 0.00 in0.0 mm 0.00 in0.0 mm
06:40 PM 56.8°F13.8°C 47.1°F8.4°C 70% 10.4 mph SW16.7 kmh SW 19.6 mph31.5 kmh 29.68 in1005.1 mb - 0.00 in0.0 mm 0.00 in0.0 mm
06:45 PM 56.8°F13.8°C 47.1°F8.4°C 70% 8.1 mph S13.0 kmh S 8.1 mph13.0 kmh 29.68 in1005.1 mb - 0.00 in0.0 mm 0.00 in0.0 mm
06:50 PM 56.9°F13.8°C 47.2°F8.4°C 70% 5.8 mph SSW9.3 kmh SSW 10.4 mph16.7 kmh 29.68 in1005.1 mb - 0.00 in0.0 mm 0.00 in0.0 mm
06:55 PM 56.8°F13.8°C 47.1°F8.4°C 70% 6.9 mph S11.1 kmh S 13.8 mph22.2 kmh 29.68 in1005.1 mb - 0.00 in0.0 mm 0.00 in0.0 mm
07:00 PM 56.8°F13.8°C 47.1°F8.4°C 70% 12.7 mph SSW20.4 kmh SSW 11.5 mph18.5 kmh 29.69 in1005.4 mb - 0.00 in0.0 mm 0.00 in0.0 mm
07:10 PM 56.9°F13.8°C 47.6°F8.7°C 71% 9.2 mph SSW14.8 kmh SSW 10.4 mph16.7 kmh 29.69 in1005.4 mb - 0.00 in0.0 mm 0.00 in0.0 mm
07:15 PM 56.9°F13.8°C 47.6°F8.7°C 71% 6.9 mph SSW11.1 kmh SSW 15.0 mph24.1 kmh 29.70 in1005.8 mb - 0.00 in0.0 mm 0.00 in0.0 mm
07:20 PM 57.0°F13.9°C 47.7°F8.7°C 71% 8.1 mph SW13.0 kmh SW 11.5 mph18.5 kmh 29.70 in1005.8 mb - 0.00 in0.0 mm 0.00 in0.0 mm
07:25 PM 57.1°F13.9°C 47.8°F8.8°C 71% 10.4 mph SW16.7 kmh SW 19.6 mph31.5 kmh 29.70 in1005.8 mb - 0.00 in0.0 mm 0.00 in0.0 mm
07:30 PM 57.2°F14.0°C 47.9°F8.8°C 71% 8.1 mph SSW13.0 kmh SSW 15.0 mph24.1 kmh 29.70 in1005.8 mb - 0.00 in0.0 mm 0.00 in0.0 mm
07:35 PM 57.2°F14.0°C 48.2°F9.0°C 72% 6.9 mph SW11.1 kmh SW 10.4 mph16.7 kmh 29.71 in1006.1 mb - 0.00 in0.0 mm 0.00 in0.0 mm
07:40 PM 56.9°F13.8°C 48.3°F9.1°C 73% 6.9 mph WSW11.1 kmh WSW 17.3 mph27.8 kmh 29.71 in1006.1 mb - 0.00 in0.0 mm 0.00 in0.0 mm
07:50 PM 56.4°F13.6°C 48.2°F9.0°C 74% 11.5 mph WSW18.5 kmh WSW 16.1 mph25.9 kmh 29.72 in1006.4 mb - 0.00 in0.0 mm 0.00 in0.0 mm
07:55 PM 56.3°F13.5°C 48.5°F9.2°C 75% 8.1 mph WSW13.0 kmh WSW 11.5 mph18.5 kmh 29.73 in1006.8 mb - 0.00 in0.0 mm 0.00 in0.0 mm
08:00 PM 56.1°F13.4°C 48.6°F9.2°C 76% 11.5 mph WSW18.5 kmh WSW 16.1 mph25.9 kmh 29.73 in1006.8 mb - 0.00 in0.0 mm 0.00 in0.0 mm
08:10 PM 55.6°F13.1°C 48.5°F9.2°C 77% 8.1 mph WSW13.0 kmh WSW 11.5 mph18.5 kmh 29.73 in1006.8 mb - 0.00 in0.0 mm 0.00 in0.0 mm
08:15 PM 55.4°F13.0°C 48.7°F9.3°C 78% 5.8 mph WSW9.3 kmh WSW 10.4 mph16.7 kmh 29.74 in1007.1 mb - 0.00 in0.0 mm 0.00 in0.0 mm
08:20 PM 55.2°F12.9°C 48.8°F9.3°C 79% 5.8 mph WSW9.3 kmh WSW 8.1 mph13.0 kmh 29.74 in1007.1 mb - 0.00 in0.0 mm 0.00 in0.0 mm
08:25 PM 55.1°F12.8°C 48.7°F9.3°C 79% 6.9 mph WSW11.1 kmh WSW 10.4 mph16.7 kmh 29.74 in1007.1 mb - 0.00 in0.0 mm 0.00 in0.0 mm
08:30 PM 55.0°F12.8°C 48.9°F9.4°C 80% 2.3 mph WSW3.7 kmh WSW 3.5 mph5.6 kmh 29.74 in1007.1 mb - 0.00 in0.0 mm 0.00 in0.0 mm
08:35 PM 54.9°F12.7°C 48.8°F9.3°C 80% 3.5 mph WSW5.6 kmh WSW 8.1 mph13.0 kmh 29.75 in1007.5 mb - 0.00 in0.0 mm 0.00 in0.0 mm
08:40 PM 54.8°F12.7°C 48.7°F9.3°C 80% 4.6 mph SW7.4 kmh SW 6.9 mph11.1 kmh 29.75 in1007.5 mb - 0.00 in0.0 mm 0.00 in0.0 mm
08:45 PM 54.8°F12.7°C 49.1°F9.5°C 81% 2.3 mph SW3.7 kmh SW 5.8 mph9.3 kmh 29.75 in1007.5 mb - 0.00 in0.0 mm 0.00 in0.0 mm
08:50 PM 54.7°F12.6°C 49.0°F9.4°C 81% 2.3 mph SW3.7 kmh SW 8.1 mph13.0 kmh 29.75 in1007.5 mb - 0.00 in0.0 mm 0.00 in0.0 mm
08:55 PM 54.6°F12.6°C 48.9°F9.4°C 81% 5.8 mph SW9.3 kmh SW 10.4 mph16.7 kmh 29.76 in1007.8 mb - 0.00 in0.0 mm 0.00 in0.0 mm
09:00 PM 54.4°F12.4°C 48.0°F8.9°C 79% 5.8 mph WSW9.3 kmh WSW 11.5 mph18.5 kmh 29.76 in1007.8 mb - 0.00 in0.0 mm 0.00 in0.0 mm
09:10 PM 54.1°F12.3°C 47.0°F8.3°C 77% 9.2 mph WSW14.8 kmh WSW 19.6 mph31.5 kmh 29.76 in1007.8 mb - 0.00 in0.0 mm 0.00 in0.0 mm
09:15 PM 54.0°F12.2°C 46.6°F8.1°C 76% 9.2 mph WSW14.8 kmh WSW 11.5 mph18.5 kmh 29.76 in1007.8 mb - 0.00 in0.0 mm 0.00 in0.0 mm
09:20 PM 54.0°F12.2°C 46.6°F8.1°C 76% 6.9 mph WSW11.1 kmh WSW 10.4 mph16.7 kmh 29.76 in1007.8 mb - 0.00 in0.0 mm 0.00 in0.0 mm
09:25 PM 53.9°F12.2°C 46.9°F8.3°C 77% 5.8 mph SW9.3 kmh SW 9.2 mph14.8 kmh 29.77 in1008.1 mb - 0.00 in0.0 mm 0.00 in0.0 mm
09:30 PM 53.8°F12.1°C 46.8°F8.2°C 77% 2.3 mph SW3.7 kmh SW 4.6 mph7.4 kmh 29.77 in1008.1 mb - 0.00 in0.0 mm 0.00 in0.0 mm
09:35 PM 53.7°F12.1°C 47.0°F8.3°C 78% 3.5 mph SW5.6 kmh SW 3.5 mph5.6 kmh 29.77 in1008.1 mb - 0.00 in0.0 mm 0.00 in0.0 mm
09:40 PM 53.6°F12.0°C 47.2°F8.4°C 79% 2.3 mph SW3.7 kmh SW 3.5 mph5.6 kmh 29.77 in1008.1 mb - 0.00 in0.0 mm 0.00 in0.0 mm
09:45 PM 53.5°F11.9°C 47.1°F8.4°C 79% 3.5 mph S5.6 kmh S 3.5 mph5.6 kmh 29.77 in1008.1 mb - 0.00 in0.0 mm 0.00 in0.0 mm
09:50 PM 53.4°F11.9°C 47.4°F8.6°C 80% 2.3 mph SSW3.7 kmh SSW 5.8 mph9.3 kmh 29.77 in1008.1 mb - 0.00 in0.0 mm 0.00 in0.0 mm
09:55 PM 53.3°F11.8°C 47.3°F8.5°C 80% Calm Calm 1.2 mph1.9 kmh 29.77 in1008.1 mb - 0.00 in0.0 mm 0.00 in0.0 mm
10:00 PM 53.2°F11.8°C 47.2°F8.4°C 80% 4.6 mph WSW7.4 kmh WSW 6.9 mph11.1 kmh 29.77 in1008.1 mb - 0.00 in0.0 mm 0.00 in0.0 mm
10:10 PM 53.1°F11.7°C 47.1°F8.4°C 80% 4.6 mph SSW7.4 kmh SSW 6.9 mph11.1 kmh 29.77 in1008.1 mb - 0.00 in0.0 mm 0.00 in0.0 mm
10:15 PM 53.1°F11.7°C 47.1°F8.4°C 80% 1.2 mph SSW1.9 kmh SSW 3.5 mph5.6 kmh 29.78 in1008.5 mb - 0.00 in0.0 mm 0.00 in0.0 mm
10:20 PM 53.0°F11.7°C 47.0°F8.3°C 80% 1.2 mph S1.9 kmh S 3.5 mph5.6 kmh 29.78 in1008.5 mb - 0.00 in0.0 mm 0.00 in0.0 mm
10:25 PM 53.0°F11.7°C 47.0°F8.3°C 80% 4.6 mph SW7.4 kmh SW 10.4 mph16.7 kmh 29.78 in1008.5 mb - 0.00 in0.0 mm 0.00 in0.0 mm
10:30 PM 53.0°F11.7°C 46.7°F8.2°C 79% 2.3 mph W3.7 kmh W 3.5 mph5.6 kmh 29.78 in1008.5 mb - 0.00 in0.0 mm 0.00 in0.0 mm
10:35 PM 53.0°F11.7°C 46.7°F8.2°C 79% 1.2 mph SW1.9 kmh SW 3.5 mph5.6 kmh 29.79 in1008.8 mb - 0.00 in0.0 mm 0.00 in0.0 mm
10:40 PM 53.0°F11.7°C 46.7°F8.2°C 79% 2.3 mph WSW3.7 kmh WSW 3.5 mph5.6 kmh 29.79 in1008.8 mb - 0.00 in0.0 mm 0.00 in0.0 mm
10:45 PM 53.0°F11.7°C 46.7°F8.2°C 79% 2.3 mph WSW3.7 kmh WSW 3.5 mph5.6 kmh 29.79 in1008.8 mb - 0.00 in0.0 mm 0.00 in0.0 mm
10:50 PM 53.0°F11.7°C 46.7°F8.2°C 79% 2.3 mph W3.7 kmh W 3.5 mph5.6 kmh 29.79 in1008.8 mb - 0.00 in0.0 mm 0.00 in0.0 mm
10:55 PM 53.0°F11.7°C 46.6°F8.1°C 79% 1.2 mph WSW1.9 kmh WSW 3.5 mph5.6 kmh 29.79 in1008.8 mb - 0.00 in0.0 mm 0.00 in0.0 mm
11:00 PM 52.9°F11.6°C 46.2°F7.9°C 78% 5.8 mph SW9.3 kmh SW 6.9 mph11.1 kmh 29.79 in1008.8 mb - 0.00 in0.0 mm 0.00 in0.0 mm
11:10 PM 52.9°F11.6°C 46.2°F7.9°C 78% 1.2 mph WSW1.9 kmh WSW 2.3 mph3.7 kmh 29.79 in1008.8 mb - 0.00 in0.0 mm 0.00 in0.0 mm
11:15 PM 52.9°F11.6°C 46.2°F7.9°C 78% Calm Calm -- 29.79 in1008.8 mb - 0.00 in0.0 mm 0.00 in0.0 mm
11:20 PM 52.8°F11.6°C 46.2°F7.9°C 78% 1.2 mph SW1.9 kmh SW 3.5 mph5.6 kmh 29.80 in1009.1 mb - 0.00 in0.0 mm 0.00 in0.0 mm
11:25 PM 52.8°F11.6°C 46.1°F7.8°C 78% 1.2 mph SW1.9 kmh SW 2.3 mph3.7 kmh 29.80 in1009.1 mb - 0.00 in0.0 mm 0.00 in0.0 mm
11:30 PM 52.8°F11.6°C 46.1°F7.8°C 78% 1.2 mph SW1.9 kmh SW 2.3 mph3.7 kmh 29.80 in1009.1 mb - 0.00 in0.0 mm 0.00 in0.0 mm
11:35 PM 52.8°F11.6°C 46.1°F7.8°C 78% 2.3 mph WSW3.7 kmh WSW 3.5 mph5.6 kmh 29.80 in1009.1 mb - 0.00 in0.0 mm 0.00 in0.0 mm
11:40 PM 52.7°F11.5°C 46.0°F7.8°C 78% Calm Calm 3.5 mph5.6 kmh 29.80 in1009.1 mb - 0.00 in0.0 mm 0.00 in0.0 mm
11:45 PM 52.7°F11.5°C 46.0°F7.8°C 78% 3.5 mph SW5.6 kmh SW 5.8 mph9.3 kmh 29.80 in1009.1 mb - 0.00 in0.0 mm 0.00 in0.0 mm
11:50 PM 52.6°F11.4°C 45.9°F7.7°C 78% 3.5 mph SW5.6 kmh SW 6.9 mph11.1 kmh 29.80 in1009.1 mb - 0.00 in0.0 mm 0.00 in0.0 mm
11:55 PM 52.6°F11.4°C 45.9°F7.7°C 78% Calm Calm 2.3 mph3.7 kmh 29.80 in1009.1 mb - 0.00 in0.0 mm 0.00 in0.0 mm